Terminal Aerodrome Forecast
Issued by NWS Cleveland, OH

Home | Current Version | Previous Version | Text Only | Print | Product List | Glossary Off
Versions: 1 2 3 4 5 6 7 8 9 10 11 12 13 14 15 16 17 18 19

000
FTUS41 KCLE 202232 AAA
TAFTOL
TAF AMD
KTOL 202232Z 2023/2118 09012KT P6SM SCT008 BKN100
     FM210700 13007KT 5SM -SHRA VCTS OVC050CB
     FM211000 16007KT 3SM -RA BR OVC018
     FM211500 21012G22KT P6SM BKN025=

USA.gov is the U.S. government's official web portal to all federal, state and local government web resources and services.